Copano Village, Texas
Current Conditions -  °F | °C
As of 12:53 AM on Saturday 25 Oct 2014 (Local Time) from KRKP Reporting Station
Clear Clear  
Wind Chill: 71°   Ceiling: Unl
Heat Index: 71°   Visibility: 10mi
Dew Point: 64°   Wind: 6mph
Humidity: 78%   Direction: 120°ESE
Pressure: 30.13"   Gusts: NA
Location:  28.2335°N, 96.9422°W
Report Text: KRKP 250553Z AUTO 12005KT 10SM CLR 22/18 A3013 RMK AO2 SLP203 T02170178 10239 20217 402780183 51001
Loading
Personal Weather Stations






























Interactive Weather Map
Tropical Storm Tracking
New forecast layout! Learn more

10-Day Weather Forecast

Advertisements
Track Severe Weather on mobile